sensor_id;sensor_type;location;lat;lon;timestamp;pressure;altitude;pressure_sealevel;temperature;humidity
39223;BME280;24936;46.328;11.026;2022-12-07T00:00:16;94155.59;;;-5.28;94.16
39223;BME280;24936;46.328;11.026;2022-12-07T00:02:41;94151.34;;;-5.29;94.25
39223;BME280;24936;46.328;11.026;2022-12-07T00:05:07;94153.66;;;-5.21;94.27
39223;BME280;24936;46.328;11.026;2022-12-07T00:07:32;94145.78;;;-5.16;94.35
39223;BME280;24936;46.328;11.026;2022-12-07T00:09:57;94150.94;;;-5.16;94.76
39223;BME280;24936;46.328;11.026;2022-12-07T00:12:23;94139.97;;;-5.22;94.91
39223;BME280;24936;46.328;11.026;2022-12-07T00:14:48;94135.97;;;-5.29;94.47
39223;BME280;24936;46.328;11.026;2022-12-07T00:17:14;94132.41;;;-5.25;94.88
39223;BME280;24936;46.328;11.026;2022-12-07T00:19:39;94137.38;;;-5.20;95.14
39223;BME280;24936;46.328;11.026;2022-12-07T00:22:04;94136.53;;;-5.20;95.26
39223;BME280;24936;46.328;11.026;2022-12-07T00:24:30;94135.75;;;-5.23;94.73
39223;BME280;24936;46.328;11.026;2022-12-07T00:26:55;94136.69;;;-5.25;94.93
39223;BME280;24936;46.328;11.026;2022-12-07T00:29:21;94134.56;;;-5.14;94.90
39223;BME280;24936;46.328;11.026;2022-12-07T00:31:48;94130.50;;;-5.19;94.96
39223;BME280;24936;46.328;11.026;2022-12-07T00:34:18;94136.66;;;-5.24;94.38
39223;BME280;24936;46.328;11.026;2022-12-07T00:36:44;94131.16;;;-5.38;94.23
39223;BME280;24936;46.328;11.026;2022-12-07T00:39:10;94126.91;;;-5.39;94.22
39223;BME280;24936;46.328;11.026;2022-12-07T00:41:37;94126.16;;;-5.43;94.17
39223;BME280;24936;46.328;11.026;2022-12-07T00:44:02;94128.09;;;-5.49;94.43
39223;BME280;24936;46.328;11.026;2022-12-07T00:46:28;94125.22;;;-5.40;94.54
39223;BME280;24936;46.328;11.026;2022-12-07T00:48:53;94123.91;;;-5.27;94.62
39223;BME280;24936;46.328;11.026;2022-12-07T00:51:21;94127.66;;;-5.12;95.08
39223;BME280;24936;46.328;11.026;2022-12-07T00:53:47;94126.28;;;-4.97;95.29
39223;BME280;24936;46.328;11.026;2022-12-07T00:56:15;94120.03;;;-5.13;94.81
39223;BME280;24936;46.328;11.026;2022-12-07T00:58:41;94117.63;;;-5.43;94.73
39223;BME280;24936;46.328;11.026;2022-12-07T01:01:09;94124.88;;;-5.55;94.48
39223;BME280;24936;46.328;11.026;2022-12-07T01:03:35;94121.94;;;-5.44;94.40
39223;BME280;24936;46.328;11.026;2022-12-07T01:06:01;94119.66;;;-5.28;94.85
39223;BME280;24936;46.328;11.026;2022-12-07T01:08:28;94122.75;;;-5.43;94.31
39223;BME280;24936;46.328;11.026;2022-12-07T01:11:04;94126.22;;;-5.44;94.97
39223;BME280;24936;46.328;11.026;2022-12-07T01:13:30;94124.91;;;-5.31;94.89
39223;BME280;24936;46.328;11.026;2022-12-07T01:16:00;94124.16;;;-5.09;94.98
39223;BME280;24936;46.328;11.026;2022-12-07T01:18:27;94117.91;;;-5.02;94.77
39223;BME280;24936;46.328;11.026;2022-12-07T01:21:05;94127.00;;;-4.93;94.84
39223;BME280;24936;46.328;11.026;2022-12-07T01:23:31;94113.59;;;-5.01;94.80
39223;BME280;24936;46.328;11.026;2022-12-07T01:25:58;94119.44;;;-5.22;93.95
39223;BME280;24936;46.328;11.026;2022-12-07T01:28:24;94120.88;;;-5.38;94.02
39223;BME280;24936;46.328;11.026;2022-12-07T01:31:08;94125.41;;;-5.45;94.17
39223;BME280;24936;46.328;11.026;2022-12-07T01:33:36;94120.00;;;-5.37;94.32
39223;BME280;24936;46.328;11.026;2022-12-07T01:36:08;94117.44;;;-5.37;94.26
39223;BME280;24936;46.328;11.026;2022-12-07T01:38:34;94115.75;;;-5.38;94.56
39223;BME280;24936;46.328;11.026;2022-12-07T01:41:01;94113.59;;;-5.25;94.88
39223;BME280;24936;46.328;11.026;2022-12-07T01:43:30;94108.72;;;-5.33;94.48
39223;BME280;24936;46.328;11.026;2022-12-07T01:45:56;94101.25;;;-5.39;94.28
39223;BME280;24936;46.328;11.026;2022-12-07T01:48:28;94110.00;;;-5.45;94.04
39223;BME280;24936;46.328;11.026;2022-12-07T01:50:59;94103.13;;;-5.44;94.33
39223;BME280;24936;46.328;11.026;2022-12-07T01:53:27;94108.53;;;-5.27;94.44
39223;BME280;24936;46.328;11.026;2022-12-07T01:55:54;94105.25;;;-5.32;94.61
39223;BME280;24936;46.328;11.026;2022-12-07T01:58:22;94105.25;;;-5.32;94.61
39223;BME280;24936;46.328;11.026;2022-12-07T02:00:48;94102.16;;;-5.40;94.14
39223;BME280;24936;46.328;11.026;2022-12-07T02:03:18;94100.56;;;-5.44;94.58
39223;BME280;24936;46.328;11.026;2022-12-07T02:05:44;94104.19;;;-5.25;94.90
39223;BME280;24936;46.328;11.026;2022-12-07T02:08:12;94104.97;;;-5.23;94.84
39223;BME280;24936;46.328;11.026;2022-12-07T02:10:38;94098.25;;;-5.27;94.24
39223;BME280;24936;46.328;11.026;2022-12-07T02:13:06;94088.88;;;-5.28;94.48
39223;BME280;24936;46.328;11.026;2022-12-07T02:26:34;94086.34;;;-5.78;94.04
39223;BME280;24936;46.328;11.026;2022-12-07T02:31:32;94080.75;;;-6.17;93.64
39223;BME280;24936;46.328;11.026;2022-12-07T02:34:05;94074.16;;;-5.99;93.89
39223;BME280;24936;46.328;11.026;2022-12-07T02:36:37;94076.19;;;-5.81;93.79
39223;BME280;24936;46.328;11.026;2022-12-07T02:42:31;94074.28;;;-5.76;94.62
39223;BME280;24936;46.328;11.026;2022-12-07T02:44:59;94066.56;;;-5.75;94.39
39223;BME280;24936;46.328;11.026;2022-12-07T02:47:26;94071.72;;;-5.76;94.18
39223;BME280;24936;46.328;11.026;2022-12-07T02:49:55;94066.22;;;-5.91;94.13
39223;BME280;24936;46.328;11.026;2022-12-07T02:52:20;94061.81;;;-5.62;94.28
39223;BME280;24936;46.328;11.026;2022-12-07T02:54:45;94059.03;;;-5.79;94.35
39223;BME280;24936;46.328;11.026;2022-12-07T02:59:52;94057.44;;;-5.84;94.37
39223;BME280;24936;46.328;11.026;2022-12-07T03:15:26;94061.50;;;-6.02;93.63
39223;BME280;24936;46.328;11.026;2022-12-07T03:17:55;94066.44;;;-5.97;94.49
39223;BME280;24936;46.328;11.026;2022-12-07T03:20:23;94059.81;;;-6.03;93.88
39223;BME280;24936;46.328;11.026;2022-12-07T03:22:50;94058.97;;;-6.03;94.12
39223;BME280;24936;46.328;11.026;2022-12-07T03:25:17;94052.94;;;-6.02;94.40
39223;BME280;24936;46.328;11.026;2022-12-07T03:30:21;94050.97;;;-5.94;94.46
39223;BME280;24936;46.328;11.026;2022-12-07T03:32:56;94050.09;;;-5.94;94.52
39223;BME280;24936;46.328;11.026;2022-12-07T03:37:58;94051.53;;;-5.86;94.88
39223;BME280;24936;46.328;11.026;2022-12-07T03:40:35;94050.84;;;-5.65;94.69
39223;BME280;24936;46.328;11.026;2022-12-07T03:43:03;94047.97;;;-5.81;94.79
39223;BME280;24936;46.328;11.026;2022-12-07T03:45:40;94045.59;;;-5.88;94.68
39223;BME280;24936;46.328;11.026;2022-12-07T03:57:12;94057.47;;;-5.60;94.64
39223;BME280;24936;46.328;11.026;2022-12-07T03:59:39;94046.94;;;-5.76;94.36
39223;BME280;24936;46.328;11.026;2022-12-07T04:02:05;94045.59;;;-5.88;94.27
39223;BME280;24936;46.328;11.026;2022-12-07T04:04:32;94044.03;;;-5.92;94.08
39223;BME280;24936;46.328;11.026;2022-12-07T04:06:58;94040.00;;;-5.99;94.46
39223;BME280;24936;46.328;11.026;2022-12-07T04:09:24;94040.94;;;-6.00;94.31
39223;BME280;24936;46.328;11.026;2022-12-07T04:11:49;94043.22;;;-5.92;94.58
39223;BME280;24936;46.328;11.026;2022-12-07T04:14:14;94035.81;;;-6.00;94.37
39223;BME280;24936;46.328;11.026;2022-12-07T04:16:48;94039.59;;;-6.12;94.35
39223;BME280;24936;46.328;11.026;2022-12-07T04:19:15;94042.47;;;-6.21;94.44
39223;BME280;24936;46.328;11.026;2022-12-07T04:21:40;94034.00;;;-5.98;94.74
39223;BME280;24936;46.328;11.026;2022-12-07T04:24:06;94033.91;;;-5.95;94.50
39223;BME280;24936;46.328;11.026;2022-12-07T04:26:32;94031.09;;;-6.12;94.20
39223;BME280;24936;46.328;11.026;2022-12-07T04:28:57;94028.94;;;-6.25;93.84
39223;BME280;24936;46.328;11.026;2022-12-07T04:31:23;94029.59;;;-6.20;93.47
39223;BME280;24936;46.328;11.026;2022-12-07T04:33:48;94021.25;;;-6.25;93.67
39223;BME280;24936;46.328;11.026;2022-12-07T04:36:14;94015.72;;;-6.12;93.81
39223;BME280;24936;46.328;11.026;2022-12-07T04:38:39;94012.34;;;-6.15;93.90
39223;BME280;24936;46.328;11.026;2022-12-07T04:41:06;94003.53;;;-6.06;93.96
39223;BME280;24936;46.328;11.026;2022-12-07T04:43:33;94018.63;;;-6.23;94.17
39223;BME280;24936;46.328;11.026;2022-12-07T04:45:58;94018.28;;;-6.39;93.88
39223;BME280;24936;46.328;11.026;2022-12-07T04:48:24;94009.31;;;-6.26;94.09
39223;BME280;24936;46.328;11.026;2022-12-07T04:50:49;94014.59;;;-6.31;93.80
39223;BME280;24936;46.328;11.026;2022-12-07T04:53:15;94026.78;;;-6.37;93.68
39223;BME280;24936;46.328;11.026;2022-12-07T04:55:40;94013.81;;;-6.33;93.88
39223;BME280;24936;46.328;11.026;2022-12-07T04:58:06;94017.34;;;-6.37;93.61
39223;BME280;24936;46.328;11.026;2022-12-07T05:00:31;94021.81;;;-6.42;93.39
39223;BME280;24936;46.328;11.026;2022-12-07T05:02:56;94024.06;;;-6.33;93.85
39223;BME280;24936;46.328;11.026;2022-12-07T05:05:22;94020.53;;;-6.30;94.10
39223;BME280;24936;46.328;11.026;2022-12-07T05:07:47;94021.44;;;-6.31;94.56
39223;BME280;24936;46.328;11.026;2022-12-07T05:10:13;94012.19;;;-6.35;94.41
39223;BME280;24936;46.328;11.026;2022-12-07T05:12:38;94015.13;;;-6.48;94.05
39223;BME280;24936;46.328;11.026;2022-12-07T05:15:04;94008.00;;;-6.38;94.68
39223;BME280;24936;46.328;11.026;2022-12-07T05:17:29;94007.31;;;-6.18;94.53
39223;BME280;24936;46.328;11.026;2022-12-07T05:19:55;94009.22;;;-6.23;94.16
39223;BME280;24936;46.328;11.026;2022-12-07T05:22:20;94009.31;;;-6.26;94.37
39223;BME280;24936;46.328;11.026;2022-12-07T05:24:46;94006.19;;;-6.34;94.40
39223;BME280;24936;46.328;11.026;2022-12-07T05:27:12;93997.31;;;-6.24;94.50
39223;BME280;24936;46.328;11.026;2022-12-07T05:29:37;93994.53;;;-6.18;94.54
39223;BME280;24936;46.328;11.026;2022-12-07T05:32:02;94004.44;;;-6.34;94.20
39223;BME280;24936;46.328;11.026;2022-12-07T05:34:28;94003.25;;;-6.49;94.78
39223;BME280;24936;46.328;11.026;2022-12-07T05:36:53;94002.19;;;-6.43;94.59
39223;BME280;24936;46.328;11.026;2022-12-07T05:39:18;94003.13;;;-6.46;94.61
39223;BME280;24936;46.328;11.026;2022-12-07T05:41:44;94015.03;;;-6.45;94.50
39223;BME280;24936;46.328;11.026;2022-12-07T05:44:28;94016.44;;;-6.34;94.30
39223;BME280;24936;46.328;11.026;2022-12-07T05:46:53;94011.25;;;-6.33;94.57
39223;BME280;24936;46.328;11.026;2022-12-07T05:49:18;94014.63;;;-6.32;94.75
39223;BME280;24936;46.328;11.026;2022-12-07T05:51:44;94018.34;;;-6.14;94.98
39223;BME280;24936;46.328;11.026;2022-12-07T05:54:09;94008.63;;;-6.31;94.67
39223;BME280;24936;46.328;11.026;2022-12-07T05:56:35;94016.63;;;-6.40;94.83
39223;BME280;24936;46.328;11.026;2022-12-07T05:59:00;94018.78;;;-6.55;93.91
39223;BME280;24936;46.328;11.026;2022-12-07T06:01:44;94020.25;;;-6.48;94.52
39223;BME280;24936;46.328;11.026;2022-12-07T06:04:09;94020.72;;;-6.35;94.76
39223;BME280;24936;46.328;11.026;2022-12-07T06:06:35;94021.03;;;-6.19;94.73
39223;BME280;24936;46.328;11.026;2022-12-07T06:09:00;94016.78;;;-6.20;94.73
39223;BME280;24936;46.328;11.026;2022-12-07T06:11:26;94028.53;;;-6.12;94.61
39223;BME280;24936;46.328;11.026;2022-12-07T06:14:09;94028.88;;;-5.98;94.41
39223;BME280;24936;46.328;11.026;2022-12-07T06:16:35;94023.41;;;-6.12;94.36
39223;BME280;24936;46.328;11.026;2022-12-07T06:19:00;94024.59;;;-6.23;94.26
39223;BME280;24936;46.328;11.026;2022-12-07T06:21:26;94030.75;;;-6.28;93.70
39223;BME280;24936;46.328;11.026;2022-12-07T06:23:52;94029.44;;;-6.40;93.30
39223;BME280;24936;46.328;11.026;2022-12-07T06:26:17;94028.53;;;-6.39;93.60
39223;BME280;24936;46.328;11.026;2022-12-07T06:28:42;94024.78;;;-6.29;93.88
39223;BME280;24936;46.328;11.026;2022-12-07T06:31:08;94026.41;;;-6.26;93.86
39223;BME280;24936;46.328;11.026;2022-12-07T06:33:34;94032.16;;;-6.20;93.94
39223;BME280;24936;46.328;11.026;2022-12-07T06:35:59;94027.91;;;-6.19;94.27
39223;BME280;24936;46.328;11.026;2022-12-07T06:38:24;94033.59;;;-6.11;94.05
39223;BME280;24936;46.328;11.026;2022-12-07T06:40:50;94032.75;;;-6.11;94.33
39223;BME280;24936;46.328;11.026;2022-12-07T06:43:15;94034.34;;;-6.07;94.01
39223;BME280;24936;46.328;11.026;2022-12-07T06:45:41;94026.44;;;-6.01;94.02
39223;BME280;24936;46.328;11.026;2022-12-07T06:48:07;94030.53;;;-5.97;93.74
39223;BME280;24936;46.328;11.026;2022-12-07T06:50:32;94024.56;;;-5.97;94.05
39223;BME280;24936;46.328;11.026;2022-12-07T06:52:57;94033.75;;;-5.90;93.94
39223;BME280;24936;46.328;11.026;2022-12-07T06:55:23;94039.59;;;-5.87;94.62
39223;BME280;24936;46.328;11.026;2022-12-07T06:57:48;94032.63;;;-5.83;94.83
39223;BME280;24936;46.328;11.026;2022-12-07T07:00:14;94032.53;;;-5.80;94.58
39223;BME280;24936;46.328;11.026;2022-12-07T07:02:40;94033.16;;;-5.73;94.87
39223;BME280;24936;46.328;11.026;2022-12-07T07:05:05;94037.81;;;-5.85;94.75
39223;BME280;24936;46.328;11.026;2022-12-07T07:07:31;94044.38;;;-5.76;94.10
39223;BME280;24936;46.328;11.026;2022-12-07T07:09:56;94032.69;;;-5.59;94.59
39223;BME280;24936;46.328;11.026;2022-12-07T07:12:21;94032.00;;;-5.64;94.58
39223;BME280;24936;46.328;11.026;2022-12-07T07:14:47;94032.88;;;-5.65;94.26
39223;BME280;24936;46.328;11.026;2022-12-07T07:17:12;94036.50;;;-5.71;93.91
39223;BME280;24936;46.328;11.026;2022-12-07T07:19:38;94029.28;;;-5.60;94.03
39223;BME280;24936;46.328;11.026;2022-12-07T07:22:04;94032.09;;;-5.68;94.39
39223;BME280;24936;46.328;11.026;2022-12-07T07:24:29;94033.84;;;-5.68;94.18
39223;BME280;24936;46.328;11.026;2022-12-07T07:26:55;94042.16;;;-5.61;94.22
39223;BME280;24936;46.328;11.026;2022-12-07T07:29:20;94038.09;;;-5.67;94.07
39223;BME280;24936;46.328;11.026;2022-12-07T07:31:46;94041.22;;;-5.59;93.96
39223;BME280;24936;46.328;11.026;2022-12-07T07:34:11;94042.81;;;-5.56;93.74
39223;BME280;24936;46.328;11.026;2022-12-07T07:36:36;94043.78;;;-5.59;93.92
39223;BME280;24936;46.328;11.026;2022-12-07T07:39:02;94045.81;;;-5.43;94.15
39223;BME280;24936;46.328;11.026;2022-12-07T07:41:27;94054.28;;;-5.41;94.19
39223;BME280;24936;46.328;11.026;2022-12-07T07:43:53;94048.44;;;-5.45;94.11
39223;BME280;24936;46.328;11.026;2022-12-07T07:46:18;94042.97;;;-5.35;94.04
39223;BME280;24936;46.328;11.026;2022-12-07T07:48:43;94044.19;;;-5.22;93.96
39223;BME280;24936;46.328;11.026;2022-12-07T07:51:09;94046.13;;;-5.29;93.84
39223;BME280;24936;46.328;11.026;2022-12-07T07:53:34;94049.78;;;-5.34;94.33
39223;BME280;24936;46.328;11.026;2022-12-07T07:56:00;94051.66;;;-5.40;94.03
39223;BME280;24936;46.328;11.026;2022-12-07T07:58:25;94046.59;;;-5.17;94.52
39223;BME280;24936;46.328;11.026;2022-12-07T08:00:51;94051.06;;;-4.99;94.33
39223;BME280;24936;46.328;11.026;2022-12-07T08:03:16;94052.94;;;-5.04;94.03
39223;BME280;24936;46.328;11.026;2022-12-07T08:05:42;94049.59;;;-5.06;93.81
39223;BME280;24936;46.328;11.026;2022-12-07T08:08:07;94061.63;;;-5.08;94.14
39223;BME280;24936;46.328;11.026;2022-12-07T08:10:32;94056.41;;;-5.05;94.13
39223;BME280;24936;46.328;11.026;2022-12-07T08:12:59;94054.59;;;-4.79;94.27
39223;BME280;24936;46.328;11.026;2022-12-07T08:15:40;94052.00;;;-4.79;93.97
39223;BME280;24936;46.328;11.026;2022-12-07T08:18:05;94055.69;;;-4.63;94.15
39223;BME280;24936;46.328;11.026;2022-12-07T08:20:32;94050.53;;;-4.40;94.19
39223;BME280;24936;46.328;11.026;2022-12-07T08:22:58;94044.59;;;-4.20;93.74
39223;BME280;24936;46.328;11.026;2022-12-07T08:25:23;94048.34;;;-4.07;94.17
39223;BME280;24936;46.328;11.026;2022-12-07T08:27:50;94050.19;;;-3.88;94.30
39223;BME280;24936;46.328;11.026;2022-12-07T08:30:16;94056.31;;;-3.49;93.73
39223;BME280;24936;46.328;11.026;2022-12-07T08:32:44;94062.16;;;-3.46;93.03
39223;BME280;24936;46.328;11.026;2022-12-07T08:35:09;94064.06;;;-3.51;93.22
39223;BME280;24936;46.328;11.026;2022-12-07T08:37:35;94057.13;;;-3.49;92.71
39223;BME280;24936;46.328;11.026;2022-12-07T08:40:00;94056.66;;;-3.38;93.06
39223;BME280;24936;46.328;11.026;2022-12-07T08:42:26;94054.06;;;-2.98;92.79
39223;BME280;24936;46.328;11.026;2022-12-07T08:44:55;94056.66;;;-2.60;92.90
39223;BME280;24936;46.328;11.026;2022-12-07T08:47:25;94042.38;;;-2.67;91.88
39223;BME280;24936;46.328;11.026;2022-12-07T08:49:52;94048.28;;;-2.09;91.82
39223;BME280;24936;46.328;11.026;2022-12-07T08:52:19;94042.63;;;-0.96;89.50
39223;BME280;24936;46.328;11.026;2022-12-07T08:54:44;94050.47;;;-0.02;84.69
39223;BME280;24936;46.328;11.026;2022-12-07T08:57:10;94049.72;;;0.57;82.76
39223;BME280;24936;46.328;11.026;2022-12-07T08:59:37;94049.38;;;1.07;83.31
39223;BME280;24936;46.328;11.026;2022-12-07T09:02:03;94045.09;;;1.49;82.15
39223;BME280;24936;46.328;11.026;2022-12-07T09:04:29;94044.94;;;2.07;82.61
39223;BME280;24936;46.328;11.026;2022-12-07T09:06:55;94044.47;;;3.07;88.43
39223;BME280;24936;46.328;11.026;2022-12-07T09:09:20;94052.56;;;2.77;86.47
39223;BME280;24936;46.328;11.026;2022-12-07T09:11:46;94043.88;;;2.37;85.99
39223;BME280;24936;46.328;11.026;2022-12-07T09:14:12;94047.06;;;3.33;84.64
39223;BME280;24936;46.328;11.026;2022-12-07T09:16:38;94042.66;;;3.83;76.50
39223;BME280;24936;46.328;11.026;2022-12-07T09:19:04;94046.06;;;5.04;73.30
39223;BME280;24936;46.328;11.026;2022-12-07T09:21:29;94037.94;;;6.21;64.84
39223;BME280;24936;46.328;11.026;2022-12-07T09:23:55;94037.53;;;6.37;63.54
39223;BME280;24936;46.328;11.026;2022-12-07T09:26:21;94042.47;;;5.96;65.92
39223;BME280;24936;46.328;11.026;2022-12-07T09:28:46;94035.41;;;5.53;64.51
39223;BME280;24936;46.328;11.026;2022-12-07T09:31:12;94038.13;;;5.62;64.55
39223;BME280;24936;46.328;11.026;2022-12-07T09:33:37;94038.25;;;5.38;63.97
39223;BME280;24936;46.328;11.026;2022-12-07T09:36:03;94040.28;;;5.34;63.78
39223;BME280;24936;46.328;11.026;2022-12-07T09:38:29;94043.47;;;5.38;63.92
39223;BME280;24936;46.328;11.026;2022-12-07T09:40:55;94034.44;;;5.88;63.53
39223;BME280;24936;46.328;11.026;2022-12-07T09:43:24;94039.34;;;7.00;59.94
39223;BME280;24936;46.328;11.026;2022-12-07T09:45:52;94039.03;;;7.14;58.76
39223;BME280;24936;46.328;11.026;2022-12-07T09:48:29;94032.91;;;7.25;58.60
39223;BME280;24936;46.328;11.026;2022-12-07T09:50:57;94048.25;;;7.40;60.69
39223;BME280;24936;46.328;11.026;2022-12-07T09:53:34;94033.84;;;8.06;56.93
39223;BME280;24936;46.328;11.026;2022-12-07T09:56:01;94035.19;;;7.90;57.82
39223;BME280;24936;46.328;11.026;2022-12-07T09:58:28;94018.75;;;7.38;59.02
39223;BME280;24936;46.328;11.026;2022-12-07T10:00:57;94022.50;;;7.86;57.79
39223;BME280;24936;46.328;11.026;2022-12-07T10:03:25;94011.03;;;7.77;55.80
39223;BME280;24936;46.328;11.026;2022-12-07T10:05:51;94002.53;;;7.13;57.98
39223;BME280;24936;46.328;11.026;2022-12-07T10:08:17;94002.34;;;5.97;60.32
39223;BME280;24936;46.328;11.026;2022-12-07T10:10:44;94012.31;;;6.68;57.20
39223;BME280;24936;46.328;11.026;2022-12-07T10:13:11;94005.56;;;5.89;56.64
39223;BME280;24936;46.328;11.026;2022-12-07T10:15:55;94004.94;;;5.42;60.48
39223;BME280;24936;46.328;11.026;2022-12-07T10:21:12;94005.47;;;3.57;65.30
39223;BME280;24936;46.328;11.026;2022-12-07T10:24:03;94000.69;;;3.88;66.78
39223;BME280;24936;46.328;11.026;2022-12-07T10:26:37;94002.53;;;4.35;63.29
39223;BME280;24936;46.328;11.026;2022-12-07T10:31:56;93979.78;;;4.72;61.12
39223;BME280;24936;46.328;11.026;2022-12-07T10:34:25;93981.56;;;5.40;59.36
39223;BME280;24936;46.328;11.026;2022-12-07T10:36:53;93980.78;;;4.47;59.85
39223;BME280;24936;46.328;11.026;2022-12-07T10:39:23;93970.34;;;4.47;62.99
39223;BME280;24936;46.328;11.026;2022-12-07T10:44:23;93962.84;;;3.95;62.65
39223;BME280;24936;46.328;11.026;2022-12-07T10:46:57;93967.69;;;4.24;63.01
39223;BME280;24936;46.328;11.026;2022-12-07T10:49:35;93960.72;;;4.36;63.20
39223;BME280;24936;46.328;11.026;2022-12-07T10:54:51;93957.34;;;4.70;63.05
39223;BME280;24936;46.328;11.026;2022-12-07T11:03:00;93934.28;;;4.99;64.79
39223;BME280;24936;46.328;11.026;2022-12-07T11:05:56;93934.28;;;5.66;59.81
39223;BME280;24936;46.328;11.026;2022-12-07T11:19:32;93917.88;;;6.93;55.96
39223;BME280;24936;46.328;11.026;2022-12-07T11:22:09;93906.31;;;6.22;57.48
39223;BME280;24936;46.328;11.026;2022-12-07T11:25:13;93910.75;;;7.04;55.46
39223;BME280;24936;46.328;11.026;2022-12-07T11:30:23;93893.38;;;6.94;54.04
39223;BME280;24936;46.328;11.026;2022-12-07T11:35:38;93894.88;;;7.27;50.78
39223;BME280;24936;46.328;11.026;2022-12-07T11:38:13;93891.66;;;7.94;46.59
39223;BME280;24936;46.328;11.026;2022-12-07T11:40:50;93880.25;;;8.72;43.62
39223;BME280;24936;46.328;11.026;2022-12-07T11:43:26;93885.72;;;8.88;44.81
39223;BME280;24936;46.328;11.026;2022-12-07T11:46:14;93883.81;;;7.94;47.28
39223;BME280;24936;46.328;11.026;2022-12-07T11:48:47;93887.25;;;6.83;52.11
39223;BME280;24936;46.328;11.026;2022-12-07T11:51:18;93883.50;;;7.07;51.37
39223;BME280;24936;46.328;11.026;2022-12-07T11:53:53;93888.19;;;7.93;49.45
39223;BME280;24936;46.328;11.026;2022-12-07T11:56:23;93872.13;;;9.03;47.42
39223;BME280;24936;46.328;11.026;2022-12-07T11:59:11;93884.75;;;7.83;51.97
39223;BME280;24936;46.328;11.026;2022-12-07T12:06:43;93878.13;;;7.79;50.47
39223;BME280;24936;46.328;11.026;2022-12-07T12:09:17;93869.22;;;6.80;53.12
39223;BME280;24936;46.328;11.026;2022-12-07T12:12:07;93863.53;;;7.86;50.28
39223;BME280;24936;46.328;11.026;2022-12-07T12:23:09;93842.44;;;7.08;51.06
39223;BME280;24936;46.328;11.026;2022-12-07T12:25:41;93845.31;;;6.11;53.88
39223;BME280;24936;46.328;11.026;2022-12-07T12:31:29;93839.66;;;7.99;50.85
39223;BME280;24936;46.328;11.026;2022-12-07T12:33:58;93838.69;;;8.00;50.10
39223;BME280;24936;46.328;11.026;2022-12-07T12:47:04;93832.31;;;8.80;48.17
39223;BME280;24936;46.328;11.026;2022-12-07T12:49:40;93828.47;;;9.02;49.16
39223;BME280;24936;46.328;11.026;2022-12-07T12:54:58;93825.81;;;8.84;47.66
39223;BME280;24936;46.328;11.026;2022-12-07T12:57:27;93826.03;;;9.83;46.91
39223;BME280;24936;46.328;11.026;2022-12-07T13:02:29;93819.16;;;9.17;45.97
39223;BME280;24936;46.328;11.026;2022-12-07T13:18:37;93802.34;;;8.82;46.86
39223;BME280;24936;46.328;11.026;2022-12-07T13:23:51;93792.25;;;9.06;48.12
39223;BME280;24936;46.328;11.026;2022-12-07T13:26:23;93800.94;;;9.34;48.85
39223;BME280;24936;46.328;11.026;2022-12-07T13:28:52;93802.16;;;8.94;51.50
39223;BME280;24936;46.328;11.026;2022-12-07T13:31:32;93794.84;;;7.83;49.76
39223;BME280;24936;46.328;11.026;2022-12-07T13:33:58;93804.22;;;7.65;48.14
39223;BME280;24936;46.328;11.026;2022-12-07T13:38:56;93790.72;;;7.31;51.22
39223;BME280;24936;46.328;11.026;2022-12-07T13:41:25;93792.13;;;6.84;50.63
39223;BME280;24936;46.328;11.026;2022-12-07T13:44:14;93793.06;;;5.36;55.93
39223;BME280;24936;46.328;11.026;2022-12-07T13:49:29;93795.16;;;3.62;59.41
39223;BME280;24936;46.328;11.026;2022-12-07T13:54:54;93790.59;;;2.69;64.14
39223;BME280;24936;46.328;11.026;2022-12-07T13:57:22;93793.00;;;2.22;66.79
39223;BME280;24936;46.328;11.026;2022-12-07T13:59:47;93790.13;;;1.88;67.16
39223;BME280;24936;46.328;11.026;2022-12-07T14:02:53;93799.72;;;1.47;69.42
39223;BME280;24936;46.328;11.026;2022-12-07T14:05:27;93797.16;;;1.60;70.96
39223;BME280;24936;46.328;11.026;2022-12-07T14:08:02;93796.22;;;2.12;68.15
39223;BME280;24936;46.328;11.026;2022-12-07T14:12:56;93795.47;;;2.23;69.63
39223;BME280;24936;46.328;11.026;2022-12-07T14:15:24;93788.03;;;1.67;67.49
39223;BME280;24936;46.328;11.026;2022-12-07T14:17:54;93798.75;;;1.22;70.52
39223;BME280;24936;46.328;11.026;2022-12-07T14:22:58;93805.53;;;0.55;69.73
39223;BME280;24936;46.328;11.026;2022-12-07T14:25:25;93803.13;;;0.38;70.12
39223;BME280;24936;46.328;11.026;2022-12-07T14:27:58;93800.38;;;0.26;71.46
39223;BME280;24936;46.328;11.026;2022-12-07T14:30:27;93806.47;;;-0.04;73.89
39223;BME280;24936;46.328;11.026;2022-12-07T14:33:04;93806.75;;;-0.23;75.14
39223;BME280;24936;46.328;11.026;2022-12-07T14:35:31;93805.72;;;-0.35;75.20
39223;BME280;24936;46.328;11.026;2022-12-07T14:37:57;93804.25;;;-0.39;74.76
39223;BME280;24936;46.328;11.026;2022-12-07T14:40:25;93805.44;;;-0.44;76.63
39223;BME280;24936;46.328;11.026;2022-12-07T14:43:09;93809.84;;;-0.61;77.48
39223;BME280;24936;46.328;11.026;2022-12-07T14:45:35;93810.59;;;-0.59;78.45
39223;BME280;24936;46.328;11.026;2022-12-07T14:48:00;93815.06;;;-0.63;79.17
39223;BME280;24936;46.328;11.026;2022-12-07T14:50:26;93815.50;;;-0.85;79.47
39223;BME280;24936;46.328;11.026;2022-12-07T14:52:56;93815.72;;;-0.89;79.73
39223;BME280;24936;46.328;11.026;2022-12-07T14:55:27;93812.75;;;-0.98;79.52
39223;BME280;24936;46.328;11.026;2022-12-07T14:57:53;93815.59;;;-1.18;80.63
39223;BME280;24936;46.328;11.026;2022-12-07T15:00:20;93816.88;;;-1.26;81.56
39223;BME280;24936;46.328;11.026;2022-12-07T15:02:49;93825.13;;;-1.35;83.12
39223;BME280;24936;46.328;11.026;2022-12-07T15:05:15;93837.81;;;-1.46;85.03
39223;BME280;24936;46.328;11.026;2022-12-07T15:07:41;93833.47;;;-1.46;85.91
39223;BME280;24936;46.328;11.026;2022-12-07T15:10:23;93831.13;;;-1.50;85.97
39223;BME280;24936;46.328;11.026;2022-12-07T15:12:54;93829.31;;;-1.48;86.14
39223;BME280;24936;46.328;11.026;2022-12-07T15:15:19;93841.31;;;-1.47;86.65
39223;BME280;24936;46.328;11.026;2022-12-07T15:17:45;93843.13;;;-1.49;86.04
39223;BME280;24936;46.328;11.026;2022-12-07T15:20:16;93841.38;;;-1.65;86.21